Air Sicilia Virtual Airways - Route

Air Sicilia Virtual Airways - SIC233L

( BR ) SBNT
Augusto Severo Airport
NATAL ( NSA )
plane_to ( SN ) GOSS
Saint Louis Airport
SAINT LOUIS ( XLS )
Tour Amelia EARHART - LEG: 9

AIRPORT NEAR NAVIGATION AIDS

Type Name Frequency
VOR-DME Natal 114300 KHZ
NDB Natal 400 KHZ

METAR / TAF
SBNT 210500Z 19005KT 9999 FEW019 BKN090 23/21 Q1015
SBNT 202000Z 2100/2112 16005KT 9999 FEW020 TN22/2106Z TX26/2112Z BECMG 2109/2111 12008KT SCT010 FEW025TCU RMK PEH

RUNWAY INFORMATION

Runway Runway length Runway width Runway elevation Runway displaced threshold Runway heading
12 5987 148 166 0 99
30 5987 148 145 0 279
16L 8530 148 149 0 141
34R 8530 148 138 0 321
16R 5905 148 161 0 141
34L 5905 148 151 0 321

AIRPORT FREQUENCIES

Type Name Frequency
APP NATAL APP 119.3 MHZ
ATIS NATAL ATIS 132.65 MHZ
GND GND 121.9 MHZ
OPS NATAL OPS 122.5 MHZ
TWR NATAL TWR 118.7 MHZ

AIRPORT NEAR NAVIGATION AIDS

Type Name Frequency
NDB Saint Louis 355 KHZ

METAR / TAF
GOSS 210300Z VRB02KT CAVOK 25/23 Q1012

RUNWAY INFORMATION

Runway Runway length Runway width Runway elevation Runway displaced threshold Runway heading
01 4300 125 0 0 4.3
19 4300 125 0 0 184.3
18 6230 100 10 0 172.6
36 6230 100 7 0 352.6

AIRPORT FREQUENCIES

Type Name Frequency
A/G RDO 568 MHZ
TWR TWR 118.7 MHZ

Flightplan

via ARCIPELAGO SS PIETRO E PAOLO

Air Sicilia Virtual Airways Fleets

AVAILABLE AIRCRAFTS for route at this time in Augusto Severo Airport
DC3 - Douglas DC3
( US ) Douglas

Aircraft in fleet: 2

1736 NM

Distance in nautical miles.

€ 0,00

Ticket price for this flight.

Nr. 9

Leg



12-11-2018
Aerosoft Airport Rio de Janeiro International V2.0 XP

L'Aeroporto Internazionale di Rio de Janeiro-Galeão (IATA: GIG, ICAO: SBGL), costruito nel 1952 nel quartiere di Ilha do Governador ed intitolato al musicista Antônio Carlos Jobim, è il principale aeroporto internazio ....


15-10-2018
Aerosoft A320 Family professional

La gamma di aeromobili A320 è una delle più comuni nei cieli. Questi aerei di linea a doppio-getto a corto e medio raggio si sono dimostrati convenienti, affidabili e prontamente disponibili, rendendoli le opzioni migl ....


10-10-2018
Motore critico ( Critical Engine )

Il motore critico di un velivolo ad ala fissa multi-motore è il motore che, in caso di guasto, influirebbe negativamente sulle prestazioni o sulla capacità di manovra di un aereo. Sui velivoli ad elica, vi è un ....


04-10-2018
Aerosoft Dortmund XP

Scopri il centro della regione della Ruhr su XPlane 11 - lo scenario Dortmund XP è una ricostruzione completa della città di Dortmund per il simulatore di volo targato Laminar. Oltre all'intera area urbana di Dortmu ....


07-08-2018
Aerosoft Professional Flight Planner PFPX

PFPX - Professional Flight Planner X - è un nuovo ed innovativo strumento di pianificazione del volo sviluppato da piloti e dispatcher del mondo reale. È un'aggiunta preziosa e realistica alla tua esperienza di simulaz ....